Airfield :
LOGIN :

Register | Disclaimer

   EN    FR    IT 

 










Legend :    VFR   Marginal VFR   IFR   Intensive IFR   Very Intensive IFR
Visi :
Ceiling :
>= 8 km
>= 3000ft
5 to 8 km
1000 to 3000 ft
1500m to 5 km
500 to 1000 ft
800 to 1500m
200 to 500 ft
< 800m
< 200 ft
Symbols :   Thunderstorms  Fog  Heavy snow  Heavy precipitations  Wind > 20 kt
SIGMETs :     Misc.  Thunderstorms  Icing  Turbulence  Mountain Waves  Volcanic Ashes






- Airport Elevation : 22 ft
- IATA code : TUN


DTTA - Tunis Carthage

CURRENT METAR :
  • 081400Z 35015KT 9999 FEW026 32/10 Q1015

EXPIRED METARs :
  • 081330Z 36018KT 9999 FEW026 32/13 Q1016
  • 081300Z 36017KT 9999 FEW026 32/12 Q1016
  • 081230Z 36015KT 9999 FEW026 32/12 Q1016
  • 081200Z 36015KT 9999 FEW026 33/12 Q1016
  • 081130Z 01014KT 9999 FEW026 32/13 Q1016
  • 081100Z 34012KT 310V010 9999 FEW026 32/12 Q1016

TAF TAF DTTA
Valid from the 08 at 12:00 until the 09 at 12:00 UTC


081100Z 0812/0912 35013KT 9999 FEW026
PROB40
TEMPO 0813/0816 35015G25KT
BECMG 0909/0911 05010KT



MET'MAP, your aeronautical weather chart ! - Copyright ORBIFLY December 2007 - Disclaimer

ORBIFLY MET'MAP TEAM :

Programming & Development : Alexandra Zaïnal
Concept & original design : Baudouin d'Aumeries
Assistance for programming : Marc-Olivier Méhu
Technical & hardware support : Manuel Goepfert

Contact : metmap@orbifly.com




SOURCES & CREDITS :

   NOAA